sensor_id;sensor_type;location;lat;lon;timestamp;temperature;humidity
43541;DHT22;29549;40.386;-3.710;2023-10-31T00:00:10;15.10;59.60
43541;DHT22;29549;40.386;-3.710;2023-10-31T00:00:22;15.10;59.60
43541;DHT22;29549;40.386;-3.710;2023-10-31T00:00:33;15.20;59.70
43541;DHT22;29549;40.386;-3.710;2023-10-31T00:00:44;15.10;59.70
43541;DHT22;29549;40.386;-3.710;2023-10-31T00:00:55;15.10;59.70
43541;DHT22;29549;40.386;-3.710;2023-10-31T00:01:06;15.10;59.80
43541;DHT22;29549;40.386;-3.710;2023-10-31T00:01:17;15.10;59.90
43541;DHT22;29549;40.386;-3.710;2023-10-31T00:01:27;15.10;59.90
43541;DHT22;29549;40.386;-3.710;2023-10-31T00:01:38;15.10;60.00
43541;DHT22;29549;40.386;-3.710;2023-10-31T00:01:49;15.10;60.10
43541;DHT22;29549;40.386;-3.710;2023-10-31T00:02:00;15.10;60.10
43541;DHT22;29549;40.386;-3.710;2023-10-31T00:02:11;15.10;60.10
43541;DHT22;29549;40.386;-3.710;2023-10-31T00:02:22;15.10;60.10
43541;DHT22;29549;40.386;-3.710;2023-10-31T00:02:32;15.10;60.20
43541;DHT22;29549;40.386;-3.710;2023-10-31T00:02:43;15.10;60.20
43541;DHT22;29549;40.386;-3.710;2023-10-31T00:02:54;15.10;60.10
43541;DHT22;29549;40.386;-3.710;2023-10-31T00:03:05;15.10;60.00
43541;DHT22;29549;40.386;-3.710;2023-10-31T00:03:15;15.10;60.00
43541;DHT22;29549;40.386;-3.710;2023-10-31T00:03:26;15.10;60.00
43541;DHT22;29549;40.386;-3.710;2023-10-31T00:03:37;15.10;59.90
43541;DHT22;29549;40.386;-3.710;2023-10-31T00:03:48;15.10;59.90
43541;DHT22;29549;40.386;-3.710;2023-10-31T00:03:58;15.10;59.90
43541;DHT22;29549;40.386;-3.710;2023-10-31T00:04:09;15.10;59.90
43541;DHT22;29549;40.386;-3.710;2023-10-31T00:04:20;15.10;59.80
43541;DHT22;29549;40.386;-3.710;2023-10-31T00:04:30;15.10;59.80
43541;DHT22;29549;40.386;-3.710;2023-10-31T00:04:41;15.10;59.80
43541;DHT22;29549;40.386;-3.710;2023-10-31T00:04:52;15.10;59.80
43541;DHT22;29549;40.386;-3.710;2023-10-31T00:05:03;15.10;59.80
43541;DHT22;29549;40.386;-3.710;2023-10-31T00:05:14;15.10;59.90
43541;DHT22;29549;40.386;-3.710;2023-10-31T00:05:24;15.10;59.90
43541;DHT22;29549;40.386;-3.710;2023-10-31T00:05:35;15.10;60.00
43541;DHT22;29549;40.386;-3.710;2023-10-31T00:05:46;15.10;60.00
43541;DHT22;29549;40.386;-3.710;2023-10-31T00:05:57;15.10;60.10
43541;DHT22;29549;40.386;-3.710;2023-10-31T00:06:07;15.10;60.10
43541;DHT22;29549;40.386;-3.710;2023-10-31T00:06:18;15.10;60.10
43541;DHT22;29549;40.386;-3.710;2023-10-31T00:06:29;15.10;60.10
43541;DHT22;29549;40.386;-3.710;2023-10-31T00:06:39;15.10;60.10
43541;DHT22;29549;40.386;-3.710;2023-10-31T00:06:50;15.00;60.10
43541;DHT22;29549;40.386;-3.710;2023-10-31T00:07:01;15.00;60.10
43541;DHT22;29549;40.386;-3.710;2023-10-31T00:07:12;15.00;60.10
43541;DHT22;29549;40.386;-3.710;2023-10-31T00:07:22;15.00;60.10
43541;DHT22;29549;40.386;-3.710;2023-10-31T00:07:33;15.00;60.10
43541;DHT22;29549;40.386;-3.710;2023-10-31T00:07:44;15.00;60.10
43541;DHT22;29549;40.386;-3.710;2023-10-31T00:07:55;15.00;60.20
43541;DHT22;29549;40.386;-3.710;2023-10-31T00:08:05;15.00;60.20
43541;DHT22;29549;40.386;-3.710;2023-10-31T00:08:16;15.00;60.20
43541;DHT22;29549;40.386;-3.710;2023-10-31T00:08:27;15.00;60.20
43541;DHT22;29549;40.386;-3.710;2023-10-31T00:08:37;15.00;60.20
43541;DHT22;29549;40.386;-3.710;2023-10-31T00:08:48;15.00;60.20
43541;DHT22;29549;40.386;-3.710;2023-10-31T00:08:59;15.00;60.20
43541;DHT22;29549;40.386;-3.710;2023-10-31T00:09:10;15.00;60.30
43541;DHT22;29549;40.386;-3.710;2023-10-31T00:09:23;15.00;60.30
43541;DHT22;29549;40.386;-3.710;2023-10-31T00:09:34;15.00;60.40
43541;DHT22;29549;40.386;-3.710;2023-10-31T00:09:45;15.00;60.50
43541;DHT22;29549;40.386;-3.710;2023-10-31T00:09:56;15.00;60.60
43541;DHT22;29549;40.386;-3.710;2023-10-31T00:10:07;15.00;60.60
43541;DHT22;29549;40.386;-3.710;2023-10-31T00:10:17;15.00;60.60
43541;DHT22;29549;40.386;-3.710;2023-10-31T00:10:28;15.00;60.60
43541;DHT22;29549;40.386;-3.710;2023-10-31T00:10:39;15.00;60.60
43541;DHT22;29549;40.386;-3.710;2023-10-31T00:10:55;15.00;60.70
43541;DHT22;29549;40.386;-3.710;2023-10-31T00:11:05;14.90;60.70
43541;DHT22;29549;40.386;-3.710;2023-10-31T00:11:16;15.00;60.70
43541;DHT22;29549;40.386;-3.710;2023-10-31T00:11:27;15.00;60.70
43541;DHT22;29549;40.386;-3.710;2023-10-31T00:11:37;15.00;60.70
43541;DHT22;29549;40.386;-3.710;2023-10-31T00:11:48;15.00;60.70
43541;DHT22;29549;40.386;-3.710;2023-10-31T00:11:59;15.00;60.70
43541;DHT22;29549;40.386;-3.710;2023-10-31T00:12:10;15.00;60.70
43541;DHT22;29549;40.386;-3.710;2023-10-31T00:12:20;15.00;60.80
43541;DHT22;29549;40.386;-3.710;2023-10-31T00:12:32;15.00;60.70
43541;DHT22;29549;40.386;-3.710;2023-10-31T00:12:42;15.00;60.70
43541;DHT22;29549;40.386;-3.710;2023-10-31T00:12:53;15.00;60.70
43541;DHT22;29549;40.386;-3.710;2023-10-31T00:13:04;15.00;60.80
43541;DHT22;29549;40.386;-3.710;2023-10-31T00:13:15;15.00;60.90
43541;DHT22;29549;40.386;-3.710;2023-10-31T00:13:26;14.90;60.90
43541;DHT22;29549;40.386;-3.710;2023-10-31T00:13:37;14.90;61.00
43541;DHT22;29549;40.386;-3.710;2023-10-31T00:13:48;15.00;61.00
43541;DHT22;29549;40.386;-3.710;2023-10-31T00:13:58;15.00;61.00
43541;DHT22;29549;40.386;-3.710;2023-10-31T00:14:09;15.00;61.10
43541;DHT22;29549;40.386;-3.710;2023-10-31T00:14:20;15.00;61.10
43541;DHT22;29549;40.386;-3.710;2023-10-31T00:14:31;15.00;61.10
43541;DHT22;29549;40.386;-3.710;2023-10-31T00:14:41;15.00;61.10
43541;DHT22;29549;40.386;-3.710;2023-10-31T00:14:53;14.90;61.10
43541;DHT22;29549;40.386;-3.710;2023-10-31T00:15:03;15.00;61.10
43541;DHT22;29549;40.386;-3.710;2023-10-31T00:15:14;15.00;61.10
43541;DHT22;29549;40.386;-3.710;2023-10-31T00:15:25;15.00;61.00
43541;DHT22;29549;40.386;-3.710;2023-10-31T00:15:36;15.00;60.90
43541;DHT22;29549;40.386;-3.710;2023-10-31T00:15:47;15.00;61.00
43541;DHT22;29549;40.386;-3.710;2023-10-31T00:15:57;15.00;61.10
43541;DHT22;29549;40.386;-3.710;2023-10-31T00:16:08;15.00;61.00
43541;DHT22;29549;40.386;-3.710;2023-10-31T00:16:19;15.00;60.90
43541;DHT22;29549;40.386;-3.710;2023-10-31T00:16:29;15.00;60.90
43541;DHT22;29549;40.386;-3.710;2023-10-31T00:16:40;15.00;60.90
43541;DHT22;29549;40.386;-3.710;2023-10-31T00:16:51;15.00;60.90
43541;DHT22;29549;40.386;-3.710;2023-10-31T00:17:02;15.00;60.90
43541;DHT22;29549;40.386;-3.710;2023-10-31T00:17:12;15.00;61.00
43541;DHT22;29549;40.386;-3.710;2023-10-31T00:17:23;15.00;61.00
43541;DHT22;29549;40.386;-3.710;2023-10-31T00:17:34;15.00;61.00
43541;DHT22;29549;40.386;-3.710;2023-10-31T00:17:44;15.00;61.00
43541;DHT22;29549;40.386;-3.710;2023-10-31T00:17:55;15.00;61.00
43541;DHT22;29549;40.386;-3.710;2023-10-31T00:18:06;15.00;60.90
43541;DHT22;29549;40.386;-3.710;2023-10-31T00:18:16;15.00;60.80
43541;DHT22;29549;40.386;-3.710;2023-10-31T00:18:27;15.00;60.70
43541;DHT22;29549;40.386;-3.710;2023-10-31T00:18:38;15.00;60.70
43541;DHT22;29549;40.386;-3.710;2023-10-31T00:18:49;15.00;60.70
43541;DHT22;29549;40.386;-3.710;2023-10-31T00:18:59;15.00;60.60
43541;DHT22;29549;40.386;-3.710;2023-10-31T00:19:10;15.00;60.60
43541;DHT22;29549;40.386;-3.710;2023-10-31T00:19:21;14.90;60.60
43541;DHT22;29549;40.386;-3.710;2023-10-31T00:19:31;15.00;60.60
43541;DHT22;29549;40.386;-3.710;2023-10-31T00:19:42;14.90;60.60
43541;DHT22;29549;40.386;-3.710;2023-10-31T00:19:54;15.00;60.60
43541;DHT22;29549;40.386;-3.710;2023-10-31T00:20:06;15.00;60.60
43541;DHT22;29549;40.386;-3.710;2023-10-31T00:20:17;15.00;60.70
43541;DHT22;29549;40.386;-3.710;2023-10-31T00:20:28;14.90;60.60
43541;DHT22;29549;40.386;-3.710;2023-10-31T00:20:39;15.00;60.50
43541;DHT22;29549;40.386;-3.710;2023-10-31T00:20:50;15.00;60.50
43541;DHT22;29549;40.386;-3.710;2023-10-31T00:21:01;15.00;60.50
43541;DHT22;29549;40.386;-3.710;2023-10-31T00:21:11;15.00;60.60
43541;DHT22;29549;40.386;-3.710;2023-10-31T00:21:22;15.00;60.60
43541;DHT22;29549;40.386;-3.710;2023-10-31T00:21:33;14.90;60.60
43541;DHT22;29549;40.386;-3.710;2023-10-31T00:21:43;15.00;60.60
43541;DHT22;29549;40.386;-3.710;2023-10-31T00:21:54;14.90;60.60
43541;DHT22;29549;40.386;-3.710;2023-10-31T00:22:05;14.90;60.60
43541;DHT22;29549;40.386;-3.710;2023-10-31T00:22:16;15.00;60.60
43541;DHT22;29549;40.386;-3.710;2023-10-31T00:22:26;14.90;60.60
43541;DHT22;29549;40.386;-3.710;2023-10-31T00:22:37;14.90;60.60
43541;DHT22;29549;40.386;-3.710;2023-10-31T00:22:48;15.00;60.60
43541;DHT22;29549;40.386;-3.710;2023-10-31T00:22:59;15.00;60.50
43541;DHT22;29549;40.386;-3.710;2023-10-31T00:23:09;14.90;60.50
43541;DHT22;29549;40.386;-3.710;2023-10-31T00:23:22;15.00;60.40
43541;DHT22;29549;40.386;-3.710;2023-10-31T00:23:33;14.90;60.40
43541;DHT22;29549;40.386;-3.710;2023-10-31T00:23:47;14.90;60.50
43541;DHT22;29549;40.386;-3.710;2023-10-31T00:23:58;15.00;60.50
43541;DHT22;29549;40.386;-3.710;2023-10-31T00:24:09;15.00;60.40
43541;DHT22;29549;40.386;-3.710;2023-10-31T00:24:20;15.00;60.40
43541;DHT22;29549;40.386;-3.710;2023-10-31T00:24:30;14.90;60.40
43541;DHT22;29549;40.386;-3.710;2023-10-31T00:24:42;14.90;60.40
43541;DHT22;29549;40.386;-3.710;2023-10-31T00:24:53;15.00;60.50
43541;DHT22;29549;40.386;-3.710;2023-10-31T00:25:04;15.00;60.60
43541;DHT22;29549;40.386;-3.710;2023-10-31T00:25:15;14.90;60.70
43541;DHT22;29549;40.386;-3.710;2023-10-31T00:25:25;14.90;60.70
43541;DHT22;29549;40.386;-3.710;2023-10-31T00:25:36;14.90;60.80
43541;DHT22;29549;40.386;-3.710;2023-10-31T00:25:47;14.90;60.80
43541;DHT22;29549;40.386;-3.710;2023-10-31T00:25:58;14.90;60.80
43541;DHT22;29549;40.386;-3.710;2023-10-31T00:26:08;14.90;60.70
43541;DHT22;29549;40.386;-3.710;2023-10-31T00:26:20;14.90;60.70
43541;DHT22;29549;40.386;-3.710;2023-10-31T00:26:31;14.90;60.70
43541;DHT22;29549;40.386;-3.710;2023-10-31T00:26:41;14.90;60.60
43541;DHT22;29549;40.386;-3.710;2023-10-31T00:26:52;14.90;60.60
43541;DHT22;29549;40.386;-3.710;2023-10-31T00:27:03;14.90;60.50
43541;DHT22;29549;40.386;-3.710;2023-10-31T00:27:14;14.90;60.50
43541;DHT22;29549;40.386;-3.710;2023-10-31T00:27:25;14.90;60.40
43541;DHT22;29549;40.386;-3.710;2023-10-31T00:27:36;14.90;60.40
43541;DHT22;29549;40.386;-3.710;2023-10-31T00:27:46;14.90;60.40
43541;DHT22;29549;40.386;-3.710;2023-10-31T00:27:57;14.90;60.30
43541;DHT22;29549;40.386;-3.710;2023-10-31T00:28:08;14.90;60.40
43541;DHT22;29549;40.386;-3.710;2023-10-31T00:28:19;14.90;60.30
43541;DHT22;29549;40.386;-3.710;2023-10-31T00:28:30;14.90;60.30
43541;DHT22;29549;40.386;-3.710;2023-10-31T00:28:40;14.90;60.30
43541;DHT22;29549;40.386;-3.710;2023-10-31T00:28:51;14.90;60.30
43541;DHT22;29549;40.386;-3.710;2023-10-31T00:29:02;14.90;60.30
43541;DHT22;29549;40.386;-3.710;2023-10-31T00:29:12;14.90;60.30
43541;DHT22;29549;40.386;-3.710;2023-10-31T00:29:23;14.90;60.20
43541;DHT22;29549;40.386;-3.710;2023-10-31T00:29:34;14.90;60.30
43541;DHT22;29549;40.386;-3.710;2023-10-31T00:29:44;14.90;60.30
43541;DHT22;29549;40.386;-3.710;2023-10-31T00:29:55;14.90;60.30
43541;DHT22;29549;40.386;-3.710;2023-10-31T00:30:06;14.90;60.20
43541;DHT22;29549;40.386;-3.710;2023-10-31T00:30:17;14.90;60.30
43541;DHT22;29549;40.386;-3.710;2023-10-31T00:30:28;14.90;60.30
43541;DHT22;29549;40.386;-3.710;2023-10-31T00:30:39;14.90;60.30
43541;DHT22;29549;40.386;-3.710;2023-10-31T00:30:49;14.80;60.20
43541;DHT22;29549;40.386;-3.710;2023-10-31T00:31:00;14.90;60.20
43541;DHT22;29549;40.386;-3.710;2023-10-31T00:31:11;14.90;60.20
43541;DHT22;29549;40.386;-3.710;2023-10-31T00:31:22;14.90;60.10
43541;DHT22;29549;40.386;-3.710;2023-10-31T00:31:32;14.90;60.20
43541;DHT22;29549;40.386;-3.710;2023-10-31T00:31:45;14.90;60.20
43541;DHT22;29549;40.386;-3.710;2023-10-31T00:31:56;14.90;60.30
43541;DHT22;29549;40.386;-3.710;2023-10-31T00:32:06;14.90;60.30
43541;DHT22;29549;40.386;-3.710;2023-10-31T00:32:17;14.90;60.30
43541;DHT22;29549;40.386;-3.710;2023-10-31T00:32:28;14.90;60.30
43541;DHT22;29549;40.386;-3.710;2023-10-31T00:32:39;14.90;60.40
43541;DHT22;29549;40.386;-3.710;2023-10-31T00:32:49;14.90;60.40
43541;DHT22;29549;40.386;-3.710;2023-10-31T00:33:00;14.90;60.50
43541;DHT22;29549;40.386;-3.710;2023-10-31T00:33:11;14.90;60.50
43541;DHT22;29549;40.386;-3.710;2023-10-31T00:33:22;14.90;60.50
43541;DHT22;29549;40.386;-3.710;2023-10-31T00:33:32;14.90;60.60
43541;DHT22;29549;40.386;-3.710;2023-10-31T00:33:43;14.90;60.60
43541;DHT22;29549;40.386;-3.710;2023-10-31T00:33:54;14.90;60.60
43541;DHT22;29549;40.386;-3.710;2023-10-31T00:34:05;14.90;60.50
43541;DHT22;29549;40.386;-3.710;2023-10-31T00:34:16;15.00;60.30
43541;DHT22;29549;40.386;-3.710;2023-10-31T00:34:27;14.90;60.30
43541;DHT22;29549;40.386;-3.710;2023-10-31T00:34:38;14.90;60.30
43541;DHT22;29549;40.386;-3.710;2023-10-31T00:34:48;14.90;60.30
43541;DHT22;29549;40.386;-3.710;2023-10-31T00:34:59;14.90;60.40
43541;DHT22;29549;40.386;-3.710;2023-10-31T00:35:10;14.90;60.40
43541;DHT22;29549;40.386;-3.710;2023-10-31T00:35:22;14.90;60.50
43541;DHT22;29549;40.386;-3.710;2023-10-31T00:35:33;15.00;60.60
43541;DHT22;29549;40.386;-3.710;2023-10-31T00:35:44;14.90;60.60
43541;DHT22;29549;40.386;-3.710;2023-10-31T00:35:55;15.00;60.50
43541;DHT22;29549;40.386;-3.710;2023-10-31T00:36:06;14.90;60.50
43541;DHT22;29549;40.386;-3.710;2023-10-31T00:36:17;14.90;60.40
43541;DHT22;29549;40.386;-3.710;2023-10-31T00:36:28;15.00;60.40
43541;DHT22;29549;40.386;-3.710;2023-10-31T00:36:38;15.00;60.40
43541;DHT22;29549;40.386;-3.710;2023-10-31T00:36:49;15.00;60.30
43541;DHT22;29549;40.386;-3.710;2023-10-31T00:37:00;15.00;60.30
43541;DHT22;29549;40.386;-3.710;2023-10-31T00:37:11;15.00;60.40
43541;DHT22;29549;40.386;-3.710;2023-10-31T00:37:21;15.00;60.30
43541;DHT22;29549;40.386;-3.710;2023-10-31T00:37:32;15.00;60.30
43541;DHT22;29549;40.386;-3.710;2023-10-31T00:37:43;15.00;60.40
43541;DHT22;29549;40.386;-3.710;2023-10-31T00:37:54;15.00;60.30
43541;DHT22;29549;40.386;-3.710;2023-10-31T00:38:04;15.00;60.20
43541;DHT22;29549;40.386;-3.710;2023-10-31T00:38:15;15.00;60.20
43541;DHT22;29549;40.386;-3.710;2023-10-31T00:38:26;15.00;60.10
43541;DHT22;29549;40.386;-3.710;2023-10-31T00:38:36;15.00;60.10
43541;DHT22;29549;40.386;-3.710;2023-10-31T00:38:47;15.00;60.10
43541;DHT22;29549;40.386;-3.710;2023-10-31T00:38:58;14.90;60.10
43541;DHT22;29549;40.386;-3.710;2023-10-31T00:39:09;15.00;60.20
43541;DHT22;29549;40.386;-3.710;2023-10-31T00:39:20;15.00;60.30
43541;DHT22;29549;40.386;-3.710;2023-10-31T00:39:30;14.90;60.30
43541;DHT22;29549;40.386;-3.710;2023-10-31T00:39:41;15.00;60.30
43541;DHT22;29549;40.386;-3.710;2023-10-31T00:39:52;14.90;60.20
43541;DHT22;29549;40.386;-3.710;2023-10-31T00:40:03;14.90;60.20
43541;DHT22;29549;40.386;-3.710;2023-10-31T00:40:13;15.00;60.20
43541;DHT22;29549;40.386;-3.710;2023-10-31T00:40:26;14.90;60.20
43541;DHT22;29549;40.386;-3.710;2023-10-31T00:40:37;14.90;60.20
43541;DHT22;29549;40.386;-3.710;2023-10-31T00:40:48;14.90;60.20
43541;DHT22;29549;40.386;-3.710;2023-10-31T00:40:59;15.00;60.10
43541;DHT22;29549;40.386;-3.710;2023-10-31T00:41:09;14.90;60.10
43541;DHT22;29549;40.386;-3.710;2023-10-31T00:41:20;15.00;60.10
43541;DHT22;29549;40.386;-3.710;2023-10-31T00:41:31;14.90;60.10
43541;DHT22;29549;40.386;-3.710;2023-10-31T00:41:44;14.90;60.10
43541;DHT22;29549;40.386;-3.710;2023-10-31T00:41:56;14.90;60.10
43541;DHT22;29549;40.386;-3.710;2023-10-31T00:42:06;15.00;60.20
43541;DHT22;29549;40.386;-3.710;2023-10-31T00:42:18;14.90;60.20
43541;DHT22;29549;40.386;-3.710;2023-10-31T00:42:29;14.90;60.30
43541;DHT22;29549;40.386;-3.710;2023-10-31T00:42:40;14.90;60.40
43541;DHT22;29549;40.386;-3.710;2023-10-31T00:42:52;14.90;60.40
43541;DHT22;29549;40.386;-3.710;2023-10-31T00:43:04;14.90;60.40
43541;DHT22;29549;40.386;-3.710;2023-10-31T00:43:15;14.90;60.40
43541;DHT22;29549;40.386;-3.710;2023-10-31T00:43:25;14.90;60.40
43541;DHT22;29549;40.386;-3.710;2023-10-31T00:43:36;14.90;60.50
43541;DHT22;29549;40.386;-3.710;2023-10-31T00:43:47;14.90;60.40
43541;DHT22;29549;40.386;-3.710;2023-10-31T00:43:58;14.90;60.30
43541;DHT22;29549;40.386;-3.710;2023-10-31T00:44:09;14.90;60.20
43541;DHT22;29549;40.386;-3.710;2023-10-31T00:44:19;14.90;60.10
43541;DHT22;29549;40.386;-3.710;2023-10-31T00:44:30;14.90;60.10
43541;DHT22;29549;40.386;-3.710;2023-10-31T00:44:41;14.90;60.00
43541;DHT22;29549;40.386;-3.710;2023-10-31T00:44:52;14.90;60.10
43541;DHT22;29549;40.386;-3.710;2023-10-31T00:45:03;14.90;60.10
43541;DHT22;29549;40.386;-3.710;2023-10-31T00:45:13;14.90;60.10
43541;DHT22;29549;40.386;-3.710;2023-10-31T00:45:24;14.90;60.10
43541;DHT22;29549;40.386;-3.710;2023-10-31T00:45:35;14.90;60.10
43541;DHT22;29549;40.386;-3.710;2023-10-31T00:45:46;14.90;60.00
43541;DHT22;29549;40.386;-3.710;2023-10-31T00:45:56;14.90;60.00
43541;DHT22;29549;40.386;-3.710;2023-10-31T00:46:07;14.90;60.10
43541;DHT22;29549;40.386;-3.710;2023-10-31T00:46:18;14.90;60.00
43541;DHT22;29549;40.386;-3.710;2023-10-31T00:46:28;14.90;60.00
43541;DHT22;29549;40.386;-3.710;2023-10-31T00:46:39;14.90;60.00
43541;DHT22;29549;40.386;-3.710;2023-10-31T00:46:50;14.90;60.10
43541;DHT22;29549;40.386;-3.710;2023-10-31T00:47:01;14.90;60.10
43541;DHT22;29549;40.386;-3.710;2023-10-31T00:47:12;14.90;60.10
43541;DHT22;29549;40.386;-3.710;2023-10-31T00:47:22;14.90;60.10
43541;DHT22;29549;40.386;-3.710;2023-10-31T00:47:33;14.90;60.10
43541;DHT22;29549;40.386;-3.710;2023-10-31T00:47:44;14.90;60.10
43541;DHT22;29549;40.386;-3.710;2023-10-31T00:47:54;14.90;60.10
43541;DHT22;29549;40.386;-3.710;2023-10-31T00:48:05;14.90;60.10
43541;DHT22;29549;40.386;-3.710;2023-10-31T00:48:16;14.90;60.20
43541;DHT22;29549;40.386;-3.710;2023-10-31T00:48:27;14.90;60.20
43541;DHT22;29549;40.386;-3.710;2023-10-31T00:48:37;14.90;60.20
43541;DHT22;29549;40.386;-3.710;2023-10-31T00:48:48;14.90;60.20
43541;DHT22;29549;40.386;-3.710;2023-10-31T00:48:59;14.80;60.20
43541;DHT22;29549;40.386;-3.710;2023-10-31T00:49:09;14.90;60.10
43541;DHT22;29549;40.386;-3.710;2023-10-31T00:49:20;14.80;60.10
43541;DHT22;29549;40.386;-3.710;2023-10-31T00:49:31;14.90;60.10
43541;DHT22;29549;40.386;-3.710;2023-10-31T00:49:41;14.80;60.10
43541;DHT22;29549;40.386;-3.710;2023-10-31T00:49:52;14.90;60.10
43541;DHT22;29549;40.386;-3.710;2023-10-31T00:50:04;14.80;60.10
43541;DHT22;29549;40.386;-3.710;2023-10-31T00:50:14;14.80;60.10
43541;DHT22;29549;40.386;-3.710;2023-10-31T00:50:25;14.80;60.00
43541;DHT22;29549;40.386;-3.710;2023-10-31T00:50:36;14.80;60.10
43541;DHT22;29549;40.386;-3.710;2023-10-31T00:50:46;14.80;60.10
43541;DHT22;29549;40.386;-3.710;2023-10-31T00:50:57;14.90;60.10
43541;DHT22;29549;40.386;-3.710;2023-10-31T00:51:08;14.80;60.20
43541;DHT22;29549;40.386;-3.710;2023-10-31T00:51:19;14.80;60.20
43541;DHT22;29549;40.386;-3.710;2023-10-31T00:51:29;14.80;60.30
43541;DHT22;29549;40.386;-3.710;2023-10-31T00:51:40;14.80;60.40
43541;DHT22;29549;40.386;-3.710;2023-10-31T00:51:51;14.80;60.40
43541;DHT22;29549;40.386;-3.710;2023-10-31T00:52:02;14.90;60.40
43541;DHT22;29549;40.386;-3.710;2023-10-31T00:52:12;14.80;60.30
43541;DHT22;29549;40.386;-3.710;2023-10-31T00:52:23;14.80;60.30
43541;DHT22;29549;40.386;-3.710;2023-10-31T00:52:34;14.80;60.20
43541;DHT22;29549;40.386;-3.710;2023-10-31T00:52:45;14.80;60.20
43541;DHT22;29549;40.386;-3.710;2023-10-31T00:52:55;14.80;60.30
43541;DHT22;29549;40.386;-3.710;2023-10-31T00:53:07;14.80;60.30
43541;DHT22;29549;40.386;-3.710;2023-10-31T00:53:17;14.80;60.40
43541;DHT22;29549;40.386;-3.710;2023-10-31T00:53:28;14.80;60.40
43541;DHT22;29549;40.386;-3.710;2023-10-31T00:53:39;14.80;60.50
43541;DHT22;29549;40.386;-3.710;2023-10-31T00:53:50;14.80;60.50
43541;DHT22;29549;40.386;-3.710;2023-10-31T00:54:00;14.80;60.50
43541;DHT22;29549;40.386;-3.710;2023-10-31T00:54:11;14.80;60.40
43541;DHT22;29549;40.386;-3.710;2023-10-31T00:54:22;14.80;60.40
43541;DHT22;29549;40.386;-3.710;2023-10-31T00:54:33;14.80;60.40
43541;DHT22;29549;40.386;-3.710;2023-10-31T00:54:44;14.80;60.50
43541;DHT22;29549;40.386;-3.710;2023-10-31T00:54:54;14.80;60.50
43541;DHT22;29549;40.386;-3.710;2023-10-31T00:55:05;14.80;60.50
43541;DHT22;29549;40.386;-3.710;2023-10-31T00:55:16;14.80;60.50
43541;DHT22;29549;40.386;-3.710;2023-10-31T00:55:27;14.80;60.40
43541;DHT22;29549;40.386;-3.710;2023-10-31T00:55:37;14.80;60.40
43541;DHT22;29549;40.386;-3.710;2023-10-31T00:55:48;14.80;60.40
43541;DHT22;29549;40.386;-3.710;2023-10-31T00:55:59;14.80;60.40
43541;DHT22;29549;40.386;-3.710;2023-10-31T00:56:09;14.80;60.40
43541;DHT22;29549;40.386;-3.710;2023-10-31T00:56:20;14.80;60.50
43541;DHT22;29549;40.386;-3.710;2023-10-31T00:56:31;14.70;60.50
43541;DHT22;29549;40.386;-3.710;2023-10-31T00:56:42;14.80;60.50
43541;DHT22;29549;40.386;-3.710;2023-10-31T00:56:52;14.70;60.60
43541;DHT22;29549;40.386;-3.710;2023-10-31T00:57:03;14.70;60.60
43541;DHT22;29549;40.386;-3.710;2023-10-31T00:57:14;14.70;60.60
43541;DHT22;29549;40.386;-3.710;2023-10-31T00:57:25;14.70;60.60
43541;DHT22;29549;40.386;-3.710;2023-10-31T00:57:35;14.70;60.70
43541;DHT22;29549;40.386;-3.710;2023-10-31T00:57:46;14.80;60.70
43541;DHT22;29549;40.386;-3.710;2023-10-31T00:57:57;14.70;60.70
43541;DHT22;29549;40.386;-3.710;2023-10-31T00:58:07;14.70;60.80
43541;DHT22;29549;40.386;-3.710;2023-10-31T00:58:18;14.70;60.80
43541;DHT22;29549;40.386;-3.710;2023-10-31T00:58:29;14.70;60.80
43541;DHT22;29549;40.386;-3.710;2023-10-31T00:58:40;14.70;60.80
43541;DHT22;29549;40.386;-3.710;2023-10-31T00:58:51;14.70;60.70
43541;DHT22;29549;40.386;-3.710;2023-10-31T00:59:02;14.70;60.70
43541;DHT22;29549;40.386;-3.710;2023-10-31T00:59:13;14.70;60.70
43541;DHT22;29549;40.386;-3.710;2023-10-31T00:59:23;14.70;60.70
43541;DHT22;29549;40.386;-3.710;2023-10-31T00:59:34;14.70;60.70
43541;DHT22;29549;40.386;-3.710;2023-10-31T00:59:45;14.70;60.60
43541;DHT22;29549;40.386;-3.710;2023-10-31T00:59:55;14.70;60.60
43541;DHT22;29549;40.386;-3.710;2023-10-31T01:00:07;14.70;60.70
43541;DHT22;29549;40.386;-3.710;2023-10-31T01:00:19;14.70;60.80
43541;DHT22;29549;40.386;-3.710;2023-10-31T01:00:30;14.70;60.70
43541;DHT22;29549;40.386;-3.710;2023-10-31T01:00:40;14.70;60.70
43541;DHT22;29549;40.386;-3.710;2023-10-31T01:00:51;14.70;60.70
43541;DHT22;29549;40.386;-3.710;2023-10-31T01:01:02;14.70;60.60
43541;DHT22;29549;40.386;-3.710;2023-10-31T01:01:14;14.70;60.60
43541;DHT22;29549;40.386;-3.710;2023-10-31T01:01:25;14.70;60.60
43541;DHT22;29549;40.386;-3.710;2023-10-31T01:01:35;14.70;60.60
43541;DHT22;29549;40.386;-3.710;2023-10-31T01:01:46;14.70;60.60
43541;DHT22;29549;40.386;-3.710;2023-10-31T01:01:57;14.70;60.60
43541;DHT22;29549;40.386;-3.710;2023-10-31T01:02:07;14.70;60.60
43541;DHT22;29549;40.386;-3.710;2023-10-31T01:02:18;14.70;60.70
43541;DHT22;29549;40.386;-3.710;2023-10-31T01:02:29;14.70;60.90
43541;DHT22;29549;40.386;-3.710;2023-10-31T01:02:39;14.70;61.00
43541;DHT22;29549;40.386;-3.710;2023-10-31T01:02:50;14.70;60.90
43541;DHT22;29549;40.386;-3.710;2023-10-31T01:03:01;14.70;60.80
43541;DHT22;29549;40.386;-3.710;2023-10-31T01:03:12;14.70;60.70
43541;DHT22;29549;40.386;-3.710;2023-10-31T01:03:22;14.70;60.70
43541;DHT22;29549;40.386;-3.710;2023-10-31T01:03:33;14.70;60.70
43541;DHT22;29549;40.386;-3.710;2023-10-31T01:03:44;14.70;60.70
43541;DHT22;29549;40.386;-3.710;2023-10-31T01:03:55;14.70;60.60
43541;DHT22;29549;40.386;-3.710;2023-10-31T01:04:06;14.70;60.60
43541;DHT22;29549;40.386;-3.710;2023-10-31T01:04:16;14.70;60.60
43541;DHT22;29549;40.386;-3.710;2023-10-31T01:04:27;14.70;60.70
43541;DHT22;29549;40.386;-3.710;2023-10-31T01:04:38;14.70;60.60
43541;DHT22;29549;40.386;-3.710;2023-10-31T01:04:48;14.70;60.60
43541;DHT22;29549;40.386;-3.710;2023-10-31T01:04:59;14.70;60.60
43541;DHT22;29549;40.386;-3.710;2023-10-31T01:05:11;14.70;60.60
43541;DHT22;29549;40.386;-3.710;2023-10-31T01:05:21;14.70;60.60
43541;DHT22;29549;40.386;-3.710;2023-10-31T01:05:32;14.70;60.60
43541;DHT22;29549;40.386;-3.710;2023-10-31T01:05:43;14.70;60.50
43541;DHT22;29549;40.386;-3.710;2023-10-31T01:05:53;14.70;60.50
43541;DHT22;29549;40.386;-3.710;2023-10-31T01:06:04;14.70;60.50
43541;DHT22;29549;40.386;-3.710;2023-10-31T01:06:15;14.80;60.50
43541;DHT22;29549;40.386;-3.710;2023-10-31T01:06:26;14.80;60.50
43541;DHT22;29549;40.386;-3.710;2023-10-31T01:06:43;14.80;60.50
43541;DHT22;29549;40.386;-3.710;2023-10-31T01:06:54;14.80;60.40
43541;DHT22;29549;40.386;-3.710;2023-10-31T01:07:05;14.70;60.40
43541;DHT22;29549;40.386;-3.710;2023-10-31T01:07:15;14.80;60.50
43541;DHT22;29549;40.386;-3.710;2023-10-31T01:07:27;14.80;60.50
43541;DHT22;29549;40.386;-3.710;2023-10-31T01:07:38;14.70;60.50